createdAt,value
2023-01-29T00:01:29.189Z,101764.91
2023-01-29T00:04:11.797Z,101767.13
2023-01-29T00:06:49.012Z,101769.00
2023-01-29T00:09:30.830Z,101766.75
2023-01-29T00:12:01.410Z,101779.16
2023-01-29T00:15:00.511Z,101792.34
2023-01-29T00:17:32.456Z,101783.06
2023-01-29T00:19:59.414Z,101792.16
2023-01-29T00:22:47.731Z,101780.22
2023-01-29T00:25:15.476Z,101794.44
2023-01-29T00:27:51.712Z,101787.72
2023-01-29T00:30:32.369Z,101787.88
2023-01-29T00:33:30.416Z,101782.81
2023-01-29T00:36:13.081Z,101787.78
2023-01-29T00:38:50.027Z,101790.19
2023-01-29T00:41:17.876Z,101791.47
2023-01-29T00:44:16.483Z,101799.94
2023-01-29T00:46:45.196Z,101798.56
2023-01-29T00:49:19.800Z,101796.16
2023-01-29T00:51:56.140Z,101797.03
2023-01-29T00:54:34.965Z,101805.34
2023-01-29T00:57:09.351Z,101806.38
2023-01-29T00:59:51.398Z,101803.81
2023-01-29T01:02:43.061Z,101807.97
2023-01-29T01:05:21.042Z,101800.13
2023-01-29T01:08:15.556Z,101809.44
2023-01-29T01:10:58.092Z,101805.88
2023-01-29T01:13:39.851Z,101806.81
2023-01-29T01:16:18.565Z,101807.28
2023-01-29T01:18:55.513Z,101813.78
2023-01-29T01:21:42.655Z,101814.28
2023-01-29T01:24:20.717Z,101807.81
2023-01-29T01:27:01.940Z,101811.91
2023-01-29T01:29:47.139Z,101818.06
2023-01-29T01:32:24.942Z,101822.66
2023-01-29T01:34:53.657Z,101822.47
2023-01-29T01:37:27.841Z,101822.47
2023-01-29T01:39:58.279Z,101829.13
2023-01-29T01:42:39.878Z,101823.84
2023-01-29T01:45:19.661Z,101828.53
2023-01-29T01:48:03.007Z,101819.88
2023-01-29T01:50:45.609Z,101817.88
2023-01-29T01:53:24.110Z,101830.09
2023-01-29T01:56:19.907Z,101826.25
2023-01-29T01:59:07.707Z,101828.84
2023-01-29T02:01:48.360Z,101832.19
2023-01-29T02:04:22.894Z,101828.63
2023-01-29T02:06:53.719Z,101830.53
2023-01-29T02:09:34.117Z,101833.34
2023-01-29T02:12:15.582Z,101838.13
2023-01-29T02:14:42.718Z,101840.53
2023-01-29T02:17:17.518Z,101831.56
2023-01-29T02:20:02.675Z,101833.00
2023-01-29T02:23:06.466Z,101832.72
2023-01-29T02:25:52.792Z,101835.94
2023-01-29T02:28:41.820Z,101845.66
2023-01-29T02:31:35.863Z,101844.59
2023-01-29T02:34:21.246Z,101846.56
2023-01-29T02:37:03.426Z,101846.25
2023-01-29T02:39:53.065Z,101839.47
2023-01-29T02:42:36.337Z,101843.84
2023-01-29T02:45:29.429Z,101836.84
2023-01-29T02:48:03.020Z,101836.03
2023-01-29T02:51:12.462Z,101834.44
2023-01-29T02:53:59.266Z,101833.94
2023-01-29T02:57:07.547Z,101839.47
2023-01-29T02:59:50.515Z,101834.78
2023-01-29T03:02:40.396Z,101834.78
2023-01-29T03:05:15.085Z,101838.53
2023-01-29T03:07:49.198Z,101837.03
2023-01-29T03:10:29.676Z,101840.91
2023-01-29T03:13:34.635Z,101840.28
2023-01-29T03:16:14.267Z,101843.50
2023-01-29T03:18:46.887Z,101847.28
2023-01-29T03:21:19.912Z,101851.84
2023-01-29T03:23:46.452Z,101846.53
2023-01-29T03:26:16.999Z,101853.19
2023-01-29T03:28:46.413Z,101852.16
2023-01-29T03:31:14.859Z,101855.25
2023-01-29T03:33:54.934Z,101847.78
2023-01-29T03:36:30.141Z,101854.13
2023-01-29T03:39:19.240Z,101857.78
2023-01-29T03:42:02.787Z,101862.75
2023-01-29T03:44:35.031Z,101860.13
2023-01-29T03:47:17.354Z,101862.41
2023-01-29T03:50:21.003Z,101860.50
2023-01-29T03:53:20.790Z,101855.03
2023-01-29T03:56:03.847Z,101857.31
2023-01-29T03:58:43.052Z,101854.00
2023-01-29T04:01:20.910Z,101857.88
2023-01-29T04:04:22.692Z,101855.63
2023-01-29T04:06:52.701Z,101851.72
2023-01-29T04:09:32.297Z,101850.56
2023-01-29T04:12:10.532Z,101860.72
2023-01-29T04:14:38.930Z,101863.63
2023-01-29T04:17:25.311Z,101855.56
2023-01-29T04:19:57.730Z,101862.78
2023-01-29T04:22:33.096Z,101858.53
2023-01-29T04:25:15.403Z,101855.09
2023-01-29T04:27:56.259Z,101868.88
2023-01-29T04:31:05.701Z,101856.13
2023-01-29T04:33:44.155Z,101858.53
2023-01-29T04:36:25.762Z,101855.59
2023-01-29T04:39:18.185Z,101864.28
2023-01-29T04:42:06.447Z,101863.09
2023-01-29T04:44:48.807Z,101869.81
2023-01-29T04:47:56.739Z,101869.66
2023-01-29T04:50:38.645Z,101878.34
2023-01-29T04:53:31.881Z,101876.94
2023-01-29T04:56:15.660Z,101875.84
2023-01-29T04:58:57.587Z,101878.16
2023-01-29T05:01:30.022Z,101885.72
2023-01-29T05:03:59.440Z,101891.22
2023-01-29T05:06:29.499Z,101893.72
2023-01-29T05:09:03.358Z,101891.69
2023-01-29T05:11:39.898Z,101886.16
2023-01-29T05:14:11.541Z,101891.97
2023-01-29T05:16:43.086Z,101893.75
2023-01-29T05:19:14.835Z,101892.34
2023-01-29T05:21:56.217Z,101891.53
2023-01-29T05:24:39.341Z,101893.13
2023-01-29T05:27:14.455Z,101895.72
2023-01-29T05:29:45.563Z,101893.97
2023-01-29T05:32:12.676Z,101891.81
2023-01-29T05:34:39.313Z,101895.63
2023-01-29T05:37:20.269Z,101894.88
2023-01-29T05:39:57.873Z,101896.09
2023-01-29T05:42:24.471Z,101902.44
2023-01-29T05:44:52.419Z,101900.44
2023-01-29T05:47:22.788Z,101908.72
2023-01-29T05:49:49.364Z,101913.75
2023-01-29T05:52:16.564Z,101914.75
2023-01-29T05:54:53.769Z,101910.69
2023-01-29T05:57:24.708Z,101912.91
2023-01-29T06:00:00.808Z,101920.25
2023-01-29T06:02:30.177Z,101919.41
2023-01-29T06:04:59.718Z,101919.13
2023-01-29T06:07:31.374Z,101934.09
2023-01-29T06:10:00.226Z,101928.81
2023-01-29T06:12:27.393Z,101931.03
2023-01-29T06:14:54.158Z,101936.78
2023-01-29T06:17:23.471Z,101928.44
2023-01-29T06:19:57.687Z,101936.72
2023-01-29T06:22:24.256Z,101938.38
2023-01-29T06:24:50.780Z,101942.84
2023-01-29T06:27:19.655Z,101939.31
2023-01-29T06:29:46.229Z,101945.25
2023-01-29T06:32:12.880Z,101947.56
2023-01-29T06:34:39.469Z,101948.50
2023-01-29T06:37:06.583Z,101952.56
2023-01-29T06:39:33.325Z,101955.94
2023-01-29T06:42:02.885Z,101959.84
2023-01-29T06:44:29.492Z,101961.97
2023-01-29T06:46:56.024Z,101961.34
2023-01-29T06:49:22.853Z,101956.94
2023-01-29T06:51:49.748Z,101956.59
2023-01-29T06:54:27.923Z,101964.28
2023-01-29T06:57:00.594Z,101964.13
2023-01-29T06:59:30.579Z,101960.66
2023-01-29T07:02:00.307Z,101965.78
2023-01-29T07:04:26.949Z,101964.19
2023-01-29T07:06:53.529Z,101976.75
2023-01-29T07:09:20.152Z,101976.38
2023-01-29T07:11:46.703Z,101978.25
2023-01-29T07:14:18.633Z,101981.09
2023-01-29T07:16:54.446Z,101986.59
2023-01-29T07:19:24.403Z,101989.41
2023-01-29T07:21:59.827Z,101990.25
2023-01-29T07:24:26.435Z,101986.81
2023-01-29T07:26:53.071Z,101992.72
2023-01-29T07:29:20.824Z,101990.78
2023-01-29T07:31:48.067Z,101994.19
2023-01-29T07:34:20.666Z,101997.72
2023-01-29T07:36:56.412Z,102002.31
2023-01-29T07:39:23.487Z,102000.72
2023-01-29T07:41:52.919Z,102005.56
2023-01-29T07:44:26.520Z,101998.59
2023-01-29T07:46:58.929Z,101997.19
2023-01-29T07:49:28.139Z,102004.91
2023-01-29T07:51:54.727Z,102011.19
2023-01-29T07:54:21.301Z,102010.75
2023-01-29T07:56:49.370Z,102015.84
2023-01-29T07:59:18.646Z,102015.72
2023-01-29T08:01:47.965Z,102021.59
2023-01-29T08:04:18.265Z,102020.09
2023-01-29T08:06:44.901Z,102021.59
2023-01-29T08:09:11.487Z,102025.53
2023-01-29T08:11:41.061Z,102027.47
2023-01-29T08:14:07.815Z,102034.13
2023-01-29T08:16:34.436Z,102035.50
2023-01-29T08:19:05.439Z,102051.38
2023-01-29T08:21:38.254Z,102046.69
2023-01-29T08:24:05.371Z,102048.75
2023-01-29T08:26:31.940Z,102045.72
2023-01-29T08:28:58.832Z,102053.22
2023-01-29T08:31:25.633Z,102052.88
2023-01-29T08:33:58.235Z,102055.91
2023-01-29T08:36:34.101Z,102058.91
2023-01-29T08:39:05.041Z,102062.72
2023-01-29T08:41:41.821Z,102062.06
2023-01-29T08:44:09.749Z,102065.19
2023-01-29T08:46:50.218Z,102072.09
2023-01-29T08:49:23.751Z,102074.59
2023-01-29T08:52:03.110Z,102081.94
2023-01-29T08:54:49.477Z,102083.34
2023-01-29T08:57:22.464Z,102089.66
2023-01-29T08:59:54.284Z,102100.25
2023-01-29T09:02:25.525Z,102098.56
2023-01-29T09:04:53.401Z,102098.88
2023-01-29T09:07:21.613Z,102097.75
2023-01-29T09:09:58.509Z,102092.50
2023-01-29T09:12:34.020Z,102092.50
2023-01-29T09:15:03.457Z,102094.78
2023-01-29T09:17:30.076Z,102093.94
2023-01-29T09:20:01.896Z,102094.31
2023-01-29T09:22:28.696Z,102091.16
2023-01-29T09:24:58.210Z,102096.19
2023-01-29T09:27:25.026Z,102095.66
2023-01-29T09:29:55.180Z,102093.88
2023-01-29T09:32:49.715Z,102098.78
2023-01-29T09:35:08.720Z,102104.66
2023-01-29T09:37:35.808Z,102094.72
2023-01-29T09:40:15.987Z,102099.09
2023-01-29T09:42:50.673Z,102096.47
2023-01-29T09:45:27.369Z,102100.31
2023-01-29T09:48:02.956Z,102099.03
2023-01-29T09:51:04.098Z,102086.69
2023-01-29T09:53:52.110Z,102092.00
2023-01-29T09:56:28.740Z,102083.16
2023-01-29T09:59:00.526Z,102086.28
2023-01-29T10:01:40.159Z,102083.69
2023-01-29T10:04:40.574Z,102081.84
2023-01-29T10:07:33.287Z,102079.22
2023-01-29T10:10:03.867Z,102079.44
2023-01-29T10:12:53.673Z,102077.03
2023-01-29T10:15:40.680Z,102072.72
2023-01-29T10:18:18.046Z,102061.22
2023-01-29T10:21:11.899Z,102068.91
2023-01-29T10:23:55.835Z,102066.34
2023-01-29T10:26:26.447Z,102054.31
2023-01-29T10:28:55.631Z,102055.47
2023-01-29T10:31:31.048Z,102061.25
2023-01-29T10:34:08.665Z,102058.72
2023-01-29T10:36:55.104Z,102059.63
2023-01-29T10:39:32.678Z,102056.09
2023-01-29T10:42:44.980Z,102045.81
2023-01-29T10:45:29.938Z,102050.88
2023-01-29T10:48:29.974Z,102050.66
2023-01-29T10:51:17.734Z,102037.63
2023-01-29T10:54:09.406Z,102042.59
2023-01-29T10:57:01.637Z,102031.81
2023-01-29T10:59:47.226Z,102025.31
2023-01-29T11:02:30.347Z,102026.88
2023-01-29T11:05:05.760Z,102022.97
2023-01-29T11:07:35.131Z,102018.25
2023-01-29T11:10:27.362Z,102022.22
2023-01-29T11:13:06.721Z,102018.00
2023-01-29T11:15:38.837Z,102006.84
2023-01-29T11:18:11.523Z,102016.06
2023-01-29T11:20:38.272Z,102009.41
2023-01-29T11:23:24.951Z,102000.25
2023-01-29T11:26:05.868Z,101999.19
2023-01-29T11:28:47.179Z,101991.09
2023-01-29T11:31:38.631Z,101988.94
2023-01-29T11:34:19.223Z,101987.41
2023-01-29T11:36:45.949Z,101983.47
2023-01-29T11:42:22.440Z,101973.84
2023-01-29T11:44:52.529Z,101977.25
2023-01-29T11:47:27.622Z,101972.84
2023-01-29T11:50:24.818Z,101969.88
2023-01-29T11:52:51.930Z,101956.69
2023-01-29T11:55:44.339Z,101957.97
2023-01-29T11:58:33.542Z,101953.97
2023-01-29T12:01:00.582Z,101949.44
2023-01-29T12:03:50.066Z,101944.66
2023-01-29T12:06:39.352Z,101947.03
2023-01-29T12:09:46.261Z,101933.00
2023-01-29T12:12:47.409Z,101933.34
2023-01-29T12:15:21.329Z,101923.69
2023-01-29T12:18:05.226Z,101925.50
2023-01-29T12:20:52.333Z,101910.13
2023-01-29T12:24:00.033Z,101910.19
2023-01-29T12:26:50.528Z,101902.59
2023-01-29T12:29:51.448Z,101903.75
2023-01-29T12:32:35.996Z,101901.44
2023-01-29T12:35:20.876Z,101898.94
2023-01-29T12:38:26.771Z,101893.53
2023-01-29T12:40:58.821Z,101895.97
2023-01-29T12:43:35.367Z,101889.97
2023-01-29T12:46:15.648Z,101891.94
2023-01-29T12:48:50.087Z,101889.44
2023-01-29T12:51:29.677Z,101876.78
2023-01-29T12:54:23.071Z,101872.53
2023-01-29T12:57:18.135Z,101874.63
2023-01-29T12:59:51.085Z,101875.06
2023-01-29T13:02:40.980Z,101864.63
2023-01-29T13:05:23.486Z,101863.13
2023-01-29T13:07:57.952Z,101857.88
2023-01-29T13:10:52.080Z,101860.19
2023-01-29T13:13:42.739Z,101857.69
2023-01-29T13:16:18.827Z,101855.66
2023-01-29T13:19:07.526Z,101852.09
2023-01-29T13:21:41.935Z,101850.19
2023-01-29T13:24:19.439Z,101853.00
2023-01-29T13:26:49.814Z,101853.97
2023-01-29T13:29:31.148Z,101851.72
2023-01-29T13:32:10.703Z,101854.91
2023-01-29T13:34:47.426Z,101861.75
2023-01-29T13:40:07.322Z,101853.31
2023-01-29T13:42:49.808Z,101850.69
2023-01-29T13:45:34.143Z,101854.97
2023-01-29T13:48:26.006Z,101854.44
2023-01-29T13:51:01.558Z,101861.47
2023-01-29T13:53:40.148Z,101865.59
2023-01-29T13:56:34.863Z,101861.28
2023-01-29T13:59:03.325Z,101864.34
2023-01-29T14:01:47.920Z,101869.56
2023-01-29T14:04:23.144Z,101874.41
2023-01-29T14:06:51.941Z,101878.16
2023-01-29T14:09:49.834Z,101875.84
2023-01-29T14:12:26.466Z,101865.56
2023-01-29T14:14:55.794Z,101867.06
2023-01-29T14:17:33.527Z,101864.84
2023-01-29T14:20:20.919Z,101866.44
2023-01-29T14:22:56.515Z,101883.00
2023-01-29T14:25:32.123Z,101882.69
2023-01-29T14:28:01.857Z,101878.31
2023-01-29T14:30:32.947Z,101870.72
2023-01-29T14:32:59.912Z,101856.34
2023-01-29T14:35:30.755Z,101856.22
2023-01-29T14:38:08.635Z,101853.41
2023-01-29T14:40:36.031Z,101859.91
2023-01-29T14:43:20.092Z,101854.72
2023-01-29T14:45:50.081Z,101849.06
2023-01-29T14:48:35.306Z,101849.78
2023-01-29T14:51:14.260Z,101848.59
2023-01-29T14:53:49.298Z,101841.25
2023-01-29T14:56:22.726Z,101843.03
2023-01-29T14:59:13.675Z,101851.00
2023-01-29T15:02:05.690Z,101846.72
2023-01-29T15:04:52.445Z,101843.34
2023-01-29T15:08:08.461Z,101838.88
2023-01-29T15:10:45.579Z,101833.91
2023-01-29T15:13:31.549Z,101837.16
2023-01-29T15:16:19.512Z,101838.03
2023-01-29T15:19:05.706Z,101844.28
2023-01-29T15:21:43.467Z,101835.63
2023-01-29T15:24:17.121Z,101834.34
2023-01-29T15:26:43.793Z,101828.03
2023-01-29T15:29:24.768Z,101823.25
2023-01-29T15:31:51.977Z,101829.59
2023-01-29T15:34:21.246Z,101828.75
2023-01-29T15:36:49.217Z,101826.03
2023-01-29T15:39:17.525Z,101821.47
2023-01-29T15:41:45.178Z,101814.94
2023-01-29T15:44:20.179Z,101811.75
2023-01-29T15:47:00.295Z,101805.47
2023-01-29T15:49:41.941Z,101807.94
2023-01-29T15:52:22.822Z,101807.94
2023-01-29T15:55:03.669Z,101815.81
2023-01-29T15:57:36.801Z,101817.47
2023-01-29T16:00:09.143Z,101810.94
2023-01-29T16:02:37.367Z,101804.53
2023-01-29T16:05:06.799Z,101805.59
2023-01-29T16:07:37.182Z,101809.44
2023-01-29T16:10:24.333Z,101809.94
2023-01-29T16:12:58.192Z,101809.38
2023-01-29T16:15:42.794Z,101808.75
2023-01-29T16:18:41.083Z,101809.97
2023-01-29T16:21:23.463Z,101801.03
2023-01-29T16:24:03.183Z,101799.69
2023-01-29T16:26:36.607Z,101804.81
2023-01-29T16:29:12.050Z,101799.31
2023-01-29T16:31:40.440Z,101797.28
2023-01-29T16:34:14.604Z,101802.78
2023-01-29T16:36:59.451Z,101804.31
2023-01-29T16:39:43.912Z,101809.75
2023-01-29T16:42:10.403Z,101814.50
2023-01-29T16:44:42.920Z,101815.56
2023-01-29T16:47:40.727Z,101821.16
2023-01-29T16:50:34.457Z,101812.09
2023-01-29T16:53:12.226Z,101825.72
2023-01-29T16:56:06.724Z,101829.63
2023-01-29T16:58:34.305Z,101829.03
2023-01-29T17:01:12.923Z,101827.56
2023-01-29T17:03:56.602Z,101827.56
2023-01-29T17:06:30.739Z,101831.00
2023-01-29T17:08:57.292Z,101826.97
2023-01-29T17:11:38.847Z,101832.25
2023-01-29T17:14:07.608Z,101831.50
2023-01-29T17:16:37.286Z,101837.72
2023-01-29T17:19:19.341Z,101838.53
2023-01-29T17:21:52.986Z,101836.13
2023-01-29T17:24:21.945Z,101833.16
2023-01-29T17:26:52.555Z,101832.34
2023-01-29T17:29:35.765Z,101835.28
2023-01-29T17:32:06.266Z,101841.25
2023-01-29T17:34:33.323Z,101850.03
2023-01-29T17:37:02.252Z,101840.97
2023-01-29T17:39:30.196Z,101835.22
2023-01-29T17:41:59.580Z,101842.75
2023-01-29T17:44:28.908Z,101849.31
2023-01-29T17:46:55.473Z,101846.59
2023-01-29T17:49:28.828Z,101842.56
2023-01-29T17:51:56.746Z,101842.84
2023-01-29T17:54:23.821Z,101838.06
2023-01-29T17:56:50.761Z,101834.34
2023-01-29T17:59:19.810Z,101833.91
2023-01-29T18:01:50.477Z,101839.13
2023-01-29T18:04:18.038Z,101831.38
2023-01-29T18:06:47.533Z,101835.41
2023-01-29T18:09:19.276Z,101838.84
2023-01-29T18:11:48.170Z,101841.34
2023-01-29T18:14:15.684Z,101837.75
2023-01-29T18:16:53.657Z,101827.84
2023-01-29T18:19:30.661Z,101825.34
2023-01-29T18:21:58.589Z,101835.94
2023-01-29T18:24:25.138Z,101831.69
2023-01-29T18:26:59.665Z,101828.50
2023-01-29T18:29:32.786Z,101827.91
2023-01-29T18:32:00.304Z,101828.34
2023-01-29T18:34:32.641Z,101817.66
2023-01-29T18:36:59.283Z,101819.34
2023-01-29T18:39:25.952Z,101816.00
2023-01-29T18:41:57.117Z,101814.47
2023-01-29T18:47:23.907Z,101809.88
2023-01-29T18:49:54.317Z,101808.22
2023-01-29T18:52:36.677Z,101807.28
2023-01-29T18:55:09.858Z,101809.66
2023-01-29T18:58:28.398Z,101804.56
2023-01-29T19:00:25.093Z,101809.59
2023-01-29T19:02:51.733Z,101810.22
2023-01-29T19:05:19.038Z,101813.34
2023-01-29T19:07:53.113Z,101805.09
2023-01-29T19:10:19.772Z,101808.66
2023-01-29T19:12:56.052Z,101820.13
2023-01-29T19:15:26.225Z,101808.47
2023-01-29T19:17:58.922Z,101813.88
2023-01-29T19:20:27.259Z,101808.91
2023-01-29T19:23:04.580Z,101820.16
2023-01-29T19:25:31.743Z,101817.31
2023-01-29T19:28:00.435Z,101813.03
2023-01-29T19:30:43.216Z,101821.84
2023-01-29T19:33:13.559Z,101818.78
2023-01-29T19:35:49.104Z,101819.34
2023-01-29T19:38:16.668Z,101819.13
2023-01-29T19:41:01.479Z,101819.56
2023-01-29T19:43:32.350Z,101820.50
2023-01-29T19:46:02.128Z,101816.84
2023-01-29T19:48:28.913Z,101818.41
2023-01-29T19:51:00.660Z,101817.47
2023-01-29T19:53:31.225Z,101820.06
2023-01-29T19:56:00.553Z,101829.06
2023-01-29T19:58:31.441Z,101828.75
2023-01-29T20:01:15.101Z,101832.50
2023-01-29T20:03:47.421Z,101831.25
2023-01-29T20:06:22.096Z,101833.34
2023-01-29T20:08:48.892Z,101835.72
2023-01-29T20:11:23.806Z,101841.03
2023-01-29T20:13:56.995Z,101837.59
2023-01-29T20:16:25.082Z,101843.75
2023-01-29T20:18:54.704Z,101839.59
2023-01-29T20:21:49.616Z,101841.66
2023-01-29T20:24:16.298Z,101840.22
2023-01-29T20:26:42.965Z,101843.94
2023-01-29T20:29:15.292Z,101843.00
2023-01-29T20:31:41.902Z,101844.88
2023-01-29T20:34:17.189Z,101840.50
2023-01-29T20:36:48.156Z,101841.03
2023-01-29T20:39:17.879Z,101844.59
2023-01-29T20:41:49.571Z,101838.72
2023-01-29T20:44:16.115Z,101836.13
2023-01-29T20:46:42.716Z,101836.34
2023-01-29T20:49:16.509Z,101829.75
2023-01-29T20:51:51.009Z,101835.94
2023-01-29T20:54:17.658Z,101830.63
2023-01-29T20:56:45.167Z,101838.00
2023-01-29T20:59:13.703Z,101833.22
2023-01-29T21:01:40.929Z,101832.63
2023-01-29T21:04:07.554Z,101827.69
2023-01-29T21:06:42.750Z,101831.84
2023-01-29T21:09:09.392Z,101828.53
2023-01-29T21:11:38.796Z,101826.03
2023-01-29T21:14:05.433Z,101821.22
2023-01-29T21:16:32.145Z,101820.56
2023-01-29T21:19:07.717Z,101817.50
2023-01-29T21:21:35.667Z,101817.78
2023-01-29T21:24:02.250Z,101819.25
2023-01-29T21:26:28.849Z,101822.47
2023-01-29T21:28:58.831Z,101824.75
2023-01-29T21:31:25.585Z,101812.25
2023-01-29T21:33:52.198Z,101823.31
2023-01-29T21:36:18.831Z,101815.69
2023-01-29T21:38:45.404Z,101811.53
2023-01-29T21:41:13.527Z,101817.47
2023-01-29T21:43:40.159Z,101813.69
2023-01-29T21:46:08.159Z,101818.72
2023-01-29T21:48:34.743Z,101818.38
2023-01-29T21:51:03.898Z,101812.03
2023-01-29T21:53:31.340Z,101818.38
2023-01-29T21:56:05.678Z,101825.03
2023-01-29T21:58:40.136Z,101812.00
2023-01-29T22:01:36.902Z,101814.28
2023-01-29T22:04:07.749Z,101812.19
2023-01-29T22:06:37.649Z,101810.34
2023-01-29T22:09:24.480Z,101808.25
2023-01-29T22:11:53.108Z,101813.47
2023-01-29T22:14:19.713Z,101810.34
2023-01-29T22:16:58.046Z,101809.47
2023-01-29T22:19:27.514Z,101811.69
2023-01-29T22:21:55.609Z,101809.59
2023-01-29T22:24:22.385Z,101809.66
2023-01-29T22:26:55.022Z,101807.16
2023-01-29T22:29:21.600Z,101808.50
2023-01-29T22:31:53.284Z,101809.06
2023-01-29T22:34:22.335Z,101803.63
2023-01-29T22:36:49.100Z,101800.41
2023-01-29T22:39:15.658Z,101804.53
2023-01-29T22:41:42.236Z,101809.09
2023-01-29T22:44:09.650Z,101802.84
2023-01-29T22:46:48.166Z,101802.59
2023-01-29T22:49:18.464Z,101801.50
2023-01-29T22:51:46.979Z,101805.22
2023-01-29T22:54:13.611Z,101803.34
2023-01-29T22:56:44.964Z,101812.09
2023-01-29T22:59:15.290Z,101807.72
2023-01-29T23:01:41.949Z,101805.69
2023-01-29T23:04:16.651Z,101800.97
2023-01-29T23:07:14.898Z,101804.16
2023-01-29T23:09:46.528Z,101798.63
2023-01-29T23:12:19.477Z,101800.56
2023-01-29T23:14:57.321Z,101804.03
2023-01-29T23:17:25.024Z,101806.63
2023-01-29T23:19:54.385Z,101802.16
2023-01-29T23:22:22.077Z,101795.63
2023-01-29T23:24:56.271Z,101797.13
2023-01-29T23:27:22.861Z,101790.84
2023-01-29T23:29:49.644Z,101796.78
2023-01-29T23:32:19.169Z,101793.63
2023-01-29T23:34:45.932Z,101799.47
2023-01-29T23:37:23.382Z,101793.97
2023-01-29T23:39:50.232Z,101793.34
2023-01-29T23:42:16.910Z,101790.19
2023-01-29T23:44:48.014Z,101793.28
2023-01-29T23:47:24.646Z,101791.63
2023-01-29T23:49:55.297Z,101783.16
2023-01-29T23:52:27.130Z,101792.66
2023-01-29T23:54:53.777Z,101793.41
2023-01-29T23:57:22.395Z,101789.13
2023-01-29T23:59:51.857Z,101787.09
